Time;durP1;ratioP1;P1;durP2;ratioP2;P2;SDS_P1;SDS_P2;PMS_P1;PMS_P2;Temp;Humidity;BMP_temperature;BMP_pressure;BME280_temperature;BME280_humidity;BME280_pressure;Samples;Min_cycle;Max_cycle;Signal;HPM_P1;HPM_P2
2021/04/15 00:00:26;;;;;;;;;;;16.40;55.00;;;;;;5050466;28;76320;-64
2021/04/15 00:02:52;;;;;;;;;;;16.40;55.20;;;;;;5050269;28;74658;-67
2021/04/15 00:05:22;;;;;;;;;;;16.40;55.20;;;;;;5050195;28;75415;-66
2021/04/15 00:07:48;;;;;;;;;;;16.40;55.10;;;;;;5052099;28;74415;-64
2021/04/15 00:10:14;;;;;;;;;;;16.30;55.30;;;;;;5051984;27;75334;-65
2021/04/15 00:12:40;;;;;;;;;;;16.30;55.50;;;;;;5050236;28;75518;-63
2021/04/15 00:15:13;;;;;;;;;;;16.30;55.50;;;;;;5051976;27;75216;-73
2021/04/15 00:17:39;;;;;;;;;;;16.40;55.70;;;;;;5051936;27;75234;-71
2021/04/15 00:20:05;;;;;;;;;;;16.40;55.50;;;;;;5051529;27;75786;-64
2021/04/15 00:22:31;;;;;;;;;;;16.30;55.40;;;;;;5052312;28;74769;-65
2021/04/15 00:24:58;;;;;;;;;;;16.30;55.40;;;;;;5051993;27;75753;-65
2021/04/15 00:27:24;;;;;;;;;;;16.30;55.30;;;;;;5052170;28;75136;-66
2021/04/15 00:29:49;;;;;;;;;;;16.30;55.20;;;;;;5051734;28;75105;-64
2021/04/15 00:32:15;;;;;;;;;;;16.20;55.20;;;;;;5052095;27;75185;-66
2021/04/15 00:34:40;;;;;;;;;;;16.20;55.30;;;;;;5051735;28;75731;-62
2021/04/15 00:37:06;;;;;;;;;;;16.20;55.60;;;;;;5051646;27;74483;-62
2021/04/15 00:39:32;;;;;;;;;;;16.20;55.40;;;;;;5051802;28;75235;-64
2021/04/15 00:41:57;;;;;;;;;;;16.20;55.40;;;;;;5051548;28;75667;-67
2021/04/15 00:44:23;;;;;;;;;;;16.20;55.50;;;;;;5051691;28;75294;-66
2021/04/15 00:46:53;;;;;;;;;;;16.20;55.50;;;;;;5051358;28;76355;-65
2021/04/15 00:49:39;;;;;;;;;;;16.10;55.50;;;;;;5039604;27;75695;-65
2021/04/15 00:52:07;;;;;;;;;;;16.10;55.50;;;;;;5048222;28;77524;-65
2021/04/15 00:54:36;;;;;;;;;;;16.10;55.40;;;;;;5055175;28;75698;-69
2021/04/15 00:57:03;;;;;;;;;;;16.10;55.50;;;;;;5048917;28;75835;-65
2021/04/15 00:59:29;;;;;;;;;;;16.00;55.70;;;;;;5033489;28;76564;-67
2021/04/15 01:01:54;;;;;;;;;;;16.00;55.80;;;;;;5033780;28;74451;-63
2021/04/15 01:04:21;;;;;;;;;;;16.00;55.90;;;;;;5034140;28;76337;-69
2021/04/15 01:06:47;;;;;;;;;;;16.00;55.80;;;;;;5034376;28;76314;-63
2021/04/15 01:09:12;;;;;;;;;;;16.00;55.80;;;;;;5034393;28;75690;-65
2021/04/15 01:11:47;;;;;;;;;;;16.00;55.80;;;;;;5053237;28;95969;-64
2021/04/15 01:14:16;;;;;;;;;;;15.90;55.90;;;;;;5053380;28;77426;-65
2021/04/15 01:17:01;;;;;;;;;;;15.90;55.90;;;;;;5054191;28;75199;-64
2021/04/15 01:19:30;;;;;;;;;;;15.90;56.00;;;;;;5054591;28;75791;-66
2021/04/15 01:22:06;;;;;;;;;;;15.90;56.00;;;;;;5054645;28;74701;-66
2021/04/15 01:24:44;;;;;;;;;;;15.90;56.20;;;;;;5054103;28;75864;-68
2021/04/15 01:27:28;;;;;;;;;;;15.80;56.30;;;;;;5052798;28;77141;-65
2021/04/15 01:30:00;;;;;;;;;;;15.90;56.20;;;;;;5054800;27;74717;-63
2021/04/15 01:32:41;;;;;;;;;;;15.90;56.10;;;;;;5054762;28;74481;-69
2021/04/15 01:35:14;;;;;;;;;;;15.80;56.20;;;;;;5054581;28;74415;-64
2021/04/15 01:37:45;;;;;;;;;;;15.80;56.10;;;;;;5054516;28;75071;-63
2021/04/15 01:40:17;;;;;;;;;;;15.70;56.00;;;;;;5052527;28;77309;-63
2021/04/15 01:42:53;;;;;;;;;;;15.80;56.00;;;;;;5054531;28;75364;-68
2021/04/15 01:45:19;;;;;;;;;;;15.70;56.10;;;;;;5053988;28;75172;-62
2021/04/15 01:47:48;;;;;;;;;;;15.70;56.10;;;;;;5054122;28;75129;-65
2021/04/15 01:50:16;;;;;;;;;;;15.70;56.20;;;;;;5052829;28;75908;-68
2021/04/15 01:52:43;;;;;;;;;;;15.60;56.00;;;;;;5052681;28;76377;-73
2021/04/15 01:55:13;;;;;;;;;;;15.60;56.00;;;;;;5052395;28;77768;-67
2021/04/15 01:57:57;;;;;;;;;;;15.60;56.10;;;;;;5053885;28;75530;-66
2021/04/15 02:00:25;;;;;;;;;;;15.60;56.10;;;;;;5053876;27;75266;-67
2021/04/15 02:02:54;;;;;;;;;;;15.60;56.30;;;;;;5052666;27;75877;-65
2021/04/15 02:05:20;;;;;;;;;;;15.50;56.20;;;;;;5053813;28;75206;-69
2021/04/15 02:07:51;;;;;;;;;;;15.50;56.40;;;;;;5052119;28;77066;-68
2021/04/15 02:10:17;;;;;;;;;;;15.40;56.50;;;;;;5054084;28;74625;-64
2021/04/15 02:12:44;;;;;;;;;;;15.40;56.80;;;;;;5054071;28;74324;-65
2021/04/15 02:15:23;;;;;;;;;;;15.40;56.70;;;;;;5053461;28;75916;-69
2021/04/15 02:17:49;;;;;;;;;;;15.40;56.80;;;;;;5053889;28;75275;-68
2021/04/15 02:20:17;;;;;;;;;;;15.40;56.90;;;;;;5052249;28;76968;-65
2021/04/15 02:22:49;;;;;;;;;;;15.30;56.90;;;;;;5053402;28;76960;-68
2021/04/15 02:25:20;;;;;;;;;;;15.40;57.00;;;;;;5053585;28;75375;-70
2021/04/15 02:27:48;;;;;;;;;;;15.30;57.10;;;;;;5053047;28;75574;-65
2021/04/15 02:30:19;;;;;;;;;;;15.30;57.20;;;;;;5053281;28;75421;-68
2021/04/15 02:32:51;;;;;;;;;;;15.30;57.20;;;;;;5053651;28;75070;-67
2021/04/15 02:35:26;;;;;;;;;;;15.30;57.30;;;;;;5053367;28;75215;-67
2021/04/15 02:37:57;;;;;;;;;;;15.30;57.30;;;;;;5051680;28;75926;-69
2021/04/15 02:40:25;;;;;;;;;;;15.30;57.60;;;;;;5051702;28;77185;-65
2021/04/15 02:42:51;;;;;;;;;;;15.30;57.40;;;;;;5051745;28;76753;-69
2021/04/15 02:45:28;;;;;;;;;;;15.40;57.30;;;;;;5053364;28;75352;-64
2021/04/15 02:48:06;;;;;;;;;;;15.30;57.20;;;;;;5051309;28;75471;-70
2021/04/15 02:50:33;;;;;;;;;;;15.30;57.30;;;;;;5053218;28;75776;-64
2021/04/15 02:53:01;;;;;;;;;;;15.30;57.10;;;;;;5053210;28;75311;-68
2021/04/15 02:55:30;;;;;;;;;;;15.30;57.20;;;;;;5053073;28;75058;-67
2021/04/15 02:58:05;;;;;;;;;;;15.20;57.20;;;;;;5053198;28;75190;-68
2021/04/15 03:00:33;;;;;;;;;;;15.30;57.40;;;;;;5051244;28;78689;-70
2021/04/15 03:03:02;;;;;;;;;;;15.20;57.50;;;;;;5053151;28;75167;-65
2021/04/15 03:05:29;;;;;;;;;;;15.10;57.70;;;;;;5051208;28;77288;-67
2021/04/15 03:07:57;;;;;;;;;;;15.20;57.70;;;;;;5053152;28;75348;-62
2021/04/15 03:10:25;;;;;;;;;;;15.10;57.70;;;;;;5052700;28;75227;-65
2021/04/15 03:13:11;;;;;;;;;;;15.10;57.90;;;;;;5051305;27;77118;-64
2021/04/15 03:15:48;;;;;;;;;;;15.10;57.80;;;;;;5052281;27;74367;-63
2021/04/15 03:18:16;;;;;;;;;;;15.00;58.00;;;;;;5052791;28;75767;-62
2021/04/15 03:20:45;;;;;;;;;;;15.00;58.10;;;;;;5051613;28;76680;-64
2021/04/15 03:23:15;;;;;;;;;;;15.00;58.10;;;;;;5052370;28;75085;-62
2021/04/15 03:25:41;;;;;;;;;;;15.00;58.30;;;;;;5052695;28;75166;-66
2021/04/15 03:28:29;;;;;;;;;;;15.00;58.30;;;;;;5052105;28;75192;-67
2021/04/15 03:31:09;;;;;;;;;;;15.10;58.30;;;;;;5048493;27;76637;-67
2021/04/15 03:33:43;;;;;;;;;;;15.00;58.20;;;;;;5085255;27;78631;-64
2021/04/15 03:36:18;;;;;;;;;;;15.00;58.30;;;;;;5052784;28;74477;-65
2021/04/15 03:38:51;;;;;;;;;;;15.10;58.30;;;;;;5052468;28;75493;-64
2021/04/15 03:41:21;;;;;;;;;;;15.00;58.20;;;;;;5050744;28;78724;-65
2021/04/15 03:44:08;;;;;;;;;;;15.00;58.20;;;;;;5052348;28;75152;-62
2021/04/15 03:46:36;;;;;;;;;;;15.00;58.30;;;;;;5052369;28;75398;-65
2021/04/15 03:49:20;;;;;;;;;;;15.00;58.30;;;;;;5051121;28;74628;-66
2021/04/15 03:51:51;;;;;;;;;;;15.00;58.40;;;;;;5052180;28;75722;-63
2021/04/15 03:54:19;;;;;;;;;;;15.00;58.40;;;;;;5051078;28;76715;-62
2021/04/15 03:56:46;;;;;;;;;;;15.00;58.60;;;;;;5084839;27;75608;-64
2021/04/15 03:59:14;;;;;;;;;;;15.00;58.50;;;;;;5052292;28;75001;-62
2021/04/15 04:01:43;;;;;;;;;;;15.00;58.40;;;;;;5052558;28;75808;-64
2021/04/15 04:04:28;;;;;;;;;;;15.00;58.60;;;;;;5050500;28;77700;-66
2021/04/15 04:06:56;;;;;;;;;;;15.00;58.60;;;;;;5051287;28;74728;-65
2021/04/15 04:09:24;;;;;;;;;;;15.00;58.60;;;;;;5050854;28;76082;-66
2021/04/15 04:11:51;;;;;;;;;;;15.00;58.60;;;;;;5053003;28;75305;-67
2021/04/15 04:14:37;;;;;;;;;;;15.00;58.70;;;;;;5050884;28;76543;-64
2021/04/15 04:17:04;;;;;;;;;;;14.90;58.70;;;;;;5040573;28;75368;-67
2021/04/15 04:19:35;;;;;;;;;;;14.90;58.60;;;;;;5052289;28;75107;-67
2021/04/15 04:22:26;;;;;;;;;;;14.90;58.70;;;;;;5050442;28;77287;-68
2021/04/15 04:24:55;;;;;;;;;;;15.00;58.60;;;;;;5050492;27;75300;-65
2021/04/15 04:27:40;;;;;;;;;;;14.90;58.50;;;;;;5053870;28;76286;-62
2021/04/15 04:30:06;;;;;;;;;;;14.90;58.60;;;;;;5055722;28;75247;-63
2021/04/15 04:32:31;;;;;;;;;;;14.80;58.70;;;;;;5055605;28;75214;-63
2021/04/15 04:34:58;;;;;;;;;;;14.80;58.60;;;;;;5053878;28;76412;-63
2021/04/15 04:37:36;;;;;;;;;;;14.80;58.60;;;;;;5054931;28;75438;-62
2021/04/15 04:40:03;;;;;;;;;;;14.80;58.60;;;;;;5053701;28;75237;-70
2021/04/15 04:42:52;;;;;;;;;;;14.70;58.80;;;;;;5053361;28;78177;-70
2021/04/15 04:45:18;;;;;;;;;;;14.70;58.90;;;;;;5048081;27;75794;-64
2021/04/15 04:47:50;;;;;;;;;;;14.70;58.90;;;;;;5053499;28;77358;-66
2021/04/15 04:50:28;;;;;;;;;;;14.70;58.90;;;;;;5055123;28;75335;-66
2021/04/15 04:53:00;;;;;;;;;;;14.70;59.00;;;;;;5055315;28;74465;-66
2021/04/15 04:55:52;;;;;;;;;;;14.70;59.00;;;;;;5053413;28;78711;-68
2021/04/15 04:58:19;;;;;;;;;;;14.60;58.90;;;;;;5045545;28;74808;-68
2021/04/15 05:00:50;;;;;;;;;;;14.50;59.10;;;;;;5053210;28;76139;-63
2021/04/15 05:03:26;;;;;;;;;;;14.50;59.40;;;;;;5055027;28;75278;-66
2021/04/15 05:06:02;;;;;;;;;;;14.50;59.50;;;;;;5054385;28;74571;-67
2021/04/15 05:08:30;;;;;;;;;;;14.50;59.60;;;;;;5055493;28;74447;-65
2021/04/15 05:10:56;;;;;;;;;;;14.50;59.50;;;;;;5053368;28;78024;-64
2021/04/15 05:13:26;;;;;;;;;;;14.50;59.60;;;;;;5053207;28;76597;-72
2021/04/15 05:15:52;;;;;;;;;;;14.50;59.70;;;;;;5052751;28;77585;-63
2021/04/15 05:18:19;;;;;;;;;;;14.50;59.60;;;;;;5054291;28;75249;-71
2021/04/15 05:20:45;;;;;;;;;;;14.50;59.60;;;;;;5055244;28;74485;-64
2021/04/15 05:23:23;;;;;;;;;;;14.50;59.50;;;;;;5054419;28;75022;-62
2021/04/15 05:25:49;;;;;;;;;;;14.50;59.60;;;;;;5054812;28;76451;-66
2021/04/15 05:28:15;;;;;;;;;;;14.40;59.70;;;;;;5054519;28;75849;-67
2021/04/15 05:30:48;;;;;;;;;;;14.40;59.80;;;;;;5054191;28;76705;-66
2021/04/15 05:33:18;;;;;;;;;;;14.50;59.90;;;;;;5051226;28;77024;-63
2021/04/15 05:35:46;;;;;;;;;;;14.50;59.80;;;;;;5049687;27;76290;-64
2021/04/15 05:38:13;;;;;;;;;;;14.50;59.80;;;;;;5047231;27;75085;-67
2021/04/15 05:40:39;;;;;;;;;;;14.50;59.60;;;;;;5050817;28;77344;-68
2021/04/15 05:43:04;;;;;;;;;;;14.40;59.50;;;;;;5053845;28;75212;-67
2021/04/15 05:45:30;;;;;;;;;;;14.50;59.50;;;;;;5052875;28;75641;-70
2021/04/15 05:47:59;;;;;;;;;;;14.50;59.50;;;;;;5054266;27;75256;-65
2021/04/15 05:50:27;;;;;;;;;;;14.50;59.50;;;;;;5053474;28;75241;-70
2021/04/15 05:52:56;;;;;;;;;;;14.50;59.50;;;;;;5053637;28;75324;-70
2021/04/15 05:55:27;;;;;;;;;;;14.50;59.40;;;;;;5052036;28;77357;-69
2021/04/15 05:57:55;;;;;;;;;;;14.50;59.40;;;;;;5051774;28;76967;-70
2021/04/15 06:00:28;;;;;;;;;;;14.60;59.20;;;;;;5054129;27;74548;-70
2021/04/15 06:03:10;;;;;;;;;;;14.60;59.10;;;;;;5054124;28;75231;-68
2021/04/15 06:05:42;;;;;;;;;;;14.60;59.10;;;;;;5054411;28;75330;-68
2021/04/15 06:08:09;;;;;;;;;;;14.60;59.20;;;;;;5040989;27;75773;-73
2021/04/15 06:10:36;;;;;;;;;;;14.60;59.10;;;;;;5033505;28;74636;-72
2021/04/15 06:13:05;;;;;;;;;;;14.60;59.20;;;;;;5033992;28;75205;-69
2021/04/15 06:15:39;;;;;;;;;;;14.60;59.10;;;;;;5052637;28;76211;-70
2021/04/15 06:18:11;;;;;;;;;;;14.60;59.00;;;;;;5050554;28;78057;-73
2021/04/15 06:20:38;;;;;;;;;;;14.60;58.90;;;;;;5050769;28;75961;-72
2021/04/15 06:23:12;;;;;;;;;;;14.70;58.80;;;;;;5054022;28;74450;-71
2021/04/15 06:25:42;;;;;;;;;;;14.70;58.80;;;;;;5053686;28;74565;-74
2021/04/15 06:28:09;;;;;;;;;;;14.70;58.50;;;;;;5055748;28;74568;-73
2021/04/15 06:30:41;;;;;;;;;;;14.70;58.80;;;;;;5064232;28;74636;-67
2021/04/15 06:33:10;;;;;;;;;;;14.70;58.80;;;;;;5058202;28;76675;-65
2021/04/15 06:35:36;;;;;;;;;;;14.70;58.60;;;;;;5053411;28;77253;-75
2021/04/15 06:38:04;;;;;;;;;;;14.70;58.70;;;;;;5051209;28;74601;-70
2021/04/15 06:40:49;;;;;;;;;;;14.80;58.60;;;;;;5051615;28;75557;-65
2021/04/15 06:43:20;;;;;;;;;;;14.70;58.60;;;;;;5053521;28;75104;-66
2021/04/15 06:45:49;;;;;;;;;;;14.80;58.60;;;;;;5051505;28;75312;-69
2021/04/15 06:48:15;;;;;;;;;;;14.80;58.40;;;;;;5051214;27;76488;-69
2021/04/15 06:50:43;;;;;;;;;;;14.70;58.40;;;;;;5051665;28;76507;-70
2021/04/15 06:53:09;;;;;;;;;;;14.70;58.30;;;;;;5052965;28;75933;-71
2021/04/15 06:55:53;;;;;;;;;;;14.60;58.20;;;;;;5050500;28;75258;-66
2021/04/15 06:58:22;;;;;;;;;;;14.60;58.70;;;;;;5052697;28;75231;-68
2021/04/15 07:01:07;;;;;;;;;;;14.60;58.70;;;;;;5051063;28;78154;-65
2021/04/15 07:03:36;;;;;;;;;;;14.70;58.70;;;;;;5052583;27;75057;-66
2021/04/15 07:06:13;;;;;;;;;;;14.80;58.90;;;;;;5050177;28;76399;-70
2021/04/15 07:08:44;;;;;;;;;;;14.90;58.60;;;;;;5051130;28;77856;-64
2021/04/15 07:11:29;;;;;;;;;;;14.90;58.50;;;;;;5051171;28;75844;-67
2021/04/15 07:14:05;;;;;;;;;;;15.00;58.50;;;;;;5032021;28;74948;-69
2021/04/15 07:16:39;;;;;;;;;;;15.00;58.00;;;;;;5052935;27;75784;-69
2021/04/15 07:19:18;;;;;;;;;;;15.00;57.90;;;;;;5051386;28;74612;-71
2021/04/15 07:21:43;;;;;;;;;;;15.00;58.00;;;;;;5049381;28;77927;-72
2021/04/15 07:24:28;;;;;;;;;;;15.00;58.00;;;;;;5051646;27;75218;-75
2021/04/15 07:27:12;;;;;;;;;;;15.10;58.10;;;;;;5051030;28;77934;-67
2021/04/15 07:29:52;;;;;;;;;;;15.20;57.90;;;;;;5052331;28;75125;-68
2021/04/15 07:32:38;;;;;;;;;;;15.30;57.60;;;;;;5050845;28;77983;-64
2021/04/15 07:35:13;;;;;;;;;;;15.30;57.30;;;;;;5043587;28;75239;-68
2021/04/15 07:37:54;;;;;;;;;;;15.30;57.40;;;;;;5044803;27;76778;-69
2021/04/15 07:40:20;;;;;;;;;;;15.40;57.50;;;;;;5040893;28;77645;-67
2021/04/15 07:42:49;;;;;;;;;;;15.40;57.30;;;;;;5032300;28;74696;-68
2021/04/15 07:45:20;;;;;;;;;;;15.50;56.80;;;;;;5072126;27;75431;-66
2021/04/15 07:48:04;;;;;;;;;;;15.50;56.70;;;;;;5050830;28;76115;-65
2021/04/15 07:50:36;;;;;;;;;;;15.50;56.70;;;;;;5048971;28;78075;-67
2021/04/15 07:53:14;;;;;;;;;;;15.50;56.10;;;;;;5050774;28;75305;-68
2021/04/15 07:56:04;;;;;;;;;;;15.40;55.80;;;;;;5048637;28;75214;-72
2021/04/15 07:58:32;;;;;;;;;;;15.50;56.00;;;;;;5050361;28;74723;-67
2021/04/15 08:01:05;;;;;;;;;;;15.50;54.90;;;;;;5050139;27;77454;-73
2021/04/15 08:03:49;;;;;;;;;;;15.40;55.20;;;;;;5050921;28;76934;-68
2021/04/15 08:06:33;;;;;;;;;;;15.40;55.40;;;;;;5046354;27;76508;-66
2021/04/15 08:09:17;;;;;;;;;;;15.40;55.40;;;;;;5067063;27;75476;-68
2021/04/15 08:11:47;;;;;;;;;;;15.40;55.40;;;;;;5051243;28;75803;-66
2021/04/15 08:14:25;;;;;;;;;;;15.40;55.00;;;;;;5052600;27;75368;-67
2021/04/15 08:16:50;;;;;;;;;;;15.30;54.70;;;;;;5053723;27;75828;-66
2021/04/15 08:19:36;;;;;;;;;;;15.30;55.70;;;;;;5052253;28;78302;-70
2021/04/15 08:22:02;;;;;;;;;;;15.30;55.60;;;;;;5050337;28;74610;-65
2021/04/15 08:24:47;;;;;;;;;;;15.40;55.30;;;;;;5052179;28;75296;-65
2021/04/15 08:27:12;;;;;;;;;;;15.50;55.40;;;;;;5051560;28;77668;-65
2021/04/15 08:29:38;;;;;;;;;;;15.50;55.20;;;;;;5053421;28;75290;-65
2021/04/15 08:32:21;;;;;;;;;;;15.60;55.00;;;;;;5051651;28;74718;-68
2021/04/15 08:35:10;;;;;;;;;;;15.60;54.90;;;;;;5050832;28;76188;-68
2021/04/15 08:37:36;;;;;;;;;;;15.60;54.60;;;;;;5052529;27;75683;-68
2021/04/15 08:40:02;;;;;;;;;;;15.50;54.60;;;;;;5053291;27;75321;-73
2021/04/15 08:42:33;;;;;;;;;;;15.40;55.10;;;;;;5053832;28;75726;-68
2021/04/15 08:45:02;;;;;;;;;;;15.40;55.40;;;;;;5054136;28;75227;-68
2021/04/15 08:47:30;;;;;;;;;;;15.50;55.20;;;;;;5053667;28;79125;-69
2021/04/15 08:50:16;;;;;;;;;;;15.60;54.70;;;;;;5052626;28;76945;-68
2021/04/15 08:52:41;;;;;;;;;;;15.60;54.50;;;;;;5055184;27;75758;-71
2021/04/15 08:55:11;;;;;;;;;;;15.70;54.70;;;;;;5053377;27;75148;-71
2021/04/15 08:57:43;;;;;;;;;;;15.80;54.60;;;;;;5054711;27;75178;-68
2021/04/15 09:00:08;;;;;;;;;;;15.90;54.40;;;;;;5053836;28;75704;-68
2021/04/15 09:02:37;;;;;;;;;;;16.00;54.10;;;;;;5053079;28;77102;-70
2021/04/15 09:05:10;;;;;;;;;;;16.10;54.00;;;;;;5052742;28;77513;-71
2021/04/15 09:07:35;;;;;;;;;;;16.30;53.60;;;;;;5047251;27;77197;-66
2021/04/15 09:10:03;;;;;;;;;;;16.40;53.40;;;;;;5053504;28;76276;-69
2021/04/15 09:12:49;;;;;;;;;;;16.50;53.20;;;;;;5052148;28;77299;-64
2021/04/15 09:15:14;;;;;;;;;;;16.60;52.80;;;;;;5054732;28;75130;-64
2021/04/15 09:17:45;;;;;;;;;;;16.70;52.50;;;;;;5054316;27;75312;-71
2021/04/15 09:20:17;;;;;;;;;;;16.70;52.40;;;;;;5052969;27;75329;-66
2021/04/15 09:23:01;;;;;;;;;;;16.70;52.30;;;;;;5052741;27;75011;-64
2021/04/15 09:25:33;;;;;;;;;;;16.70;52.40;;;;;;5051236;28;78549;-63
2021/04/15 09:27:58;;;;;;;;;;;16.60;52.60;;;;;;5051862;28;77336;-64
2021/04/15 09:30:33;;;;;;;;;;;16.50;53.00;;;;;;5051534;28;77770;-66
2021/04/15 09:33:18;;;;;;;;;;;16.40;53.00;;;;;;5052297;28;76017;-70
2021/04/15 09:35:52;;;;;;;;;;;16.40;53.20;;;;;;5053533;27;75158;-65
2021/04/15 09:38:40;;;;;;;;;;;16.30;53.40;;;;;;5052323;28;78157;-67
2021/04/15 09:41:12;;;;;;;;;;;16.30;53.60;;;;;;5051302;28;75989;-69
2021/04/15 09:43:37;;;;;;;;;;;16.20;53.80;;;;;;5051645;28;74645;-68
2021/04/15 09:46:06;;;;;;;;;;;16.10;53.70;;;;;;5053443;28;74532;-67
2021/04/15 09:48:49;;;;;;;;;;;16.10;53.90;;;;;;5052559;28;78628;-64
2021/04/15 09:51:29;;;;;;;;;;;16.10;54.20;;;;;;5054107;28;75463;-66
2021/04/15 09:54:13;;;;;;;;;;;16.00;53.90;;;;;;5052112;28;77514;-66
2021/04/15 09:56:43;;;;;;;;;;;16.00;54.30;;;;;;5052069;28;77758;-63
2021/04/15 09:59:27;;;;;;;;;;;16.10;54.20;;;;;;5053936;28;74502;-63
2021/04/15 10:02:11;;;;;;;;;;;16.20;54.10;;;;;;5052091;28;76575;-66
2021/04/15 10:04:47;;;;;;;;;;;16.30;53.90;;;;;;5053528;27;74792;-64
2021/04/15 10:07:16;;;;;;;;;;;16.40;53.50;;;;;;5053405;28;75104;-65
2021/04/15 10:09:46;;;;;;;;;;;16.40;53.50;;;;;;5049386;28;77361;-62
2021/04/15 10:12:26;;;;;;;;;;;16.40;53.00;;;;;;5050476;28;75432;-64
2021/04/15 10:15:11;;;;;;;;;;;16.50;52.70;;;;;;5051658;28;77784;-64
2021/04/15 10:17:47;;;;;;;;;;;16.40;52.70;;;;;;5052986;27;74539;-70
2021/04/15 10:20:18;;;;;;;;;;;16.40;52.80;;;;;;5034669;28;75530;-64
2021/04/15 10:22:49;;;;;;;;;;;16.40;52.50;;;;;;5075349;27;77468;-64
2021/04/15 10:25:21;;;;;;;;;;;16.40;52.60;;;;;;5052969;28;75860;-64
2021/04/15 10:27:50;;;;;;;;;;;16.50;52.60;;;;;;5052895;27;74879;-66
2021/04/15 10:30:34;;;;;;;;;;;16.60;52.50;;;;;;5053524;28;75086;-64
2021/04/15 10:33:02;;;;;;;;;;;16.60;52.50;;;;;;5053424;28;75188;-64
2021/04/15 10:35:33;;;;;;;;;;;16.80;52.20;;;;;;5052702;27;75344;-63
2021/04/15 10:38:17;;;;;;;;;;;16.90;51.80;;;;;;5052876;27;75811;-62
2021/04/15 10:41:06;;;;;;;;;;;16.90;51.00;;;;;;5051205;28;76363;-63
2021/04/15 10:43:56;;;;;;;;;;;16.90;51.30;;;;;;5041354;27;75180;-65
2021/04/15 10:46:36;;;;;;;;;;;16.90;51.20;;;;;;5052652;28;75286;-63
2021/04/15 10:49:09;;;;;;;;;;;17.00;51.30;;;;;;5051264;28;77591;-64
2021/04/15 10:51:50;;;;;;;;;;;17.20;51.40;;;;;;5050991;28;75918;-66
2021/04/15 10:54:37;;;;;;;;;;;17.40;51.20;;;;;;5051090;28;77121;-66
2021/04/15 10:57:33;;;;;;;;;;;17.70;50.50;;;;;;5050340;28;77597;-64
2021/04/15 11:00:17;;;;;;;;;;;17.90;50.10;;;;;;5041539;27;75223;-70
2021/04/15 11:02:53;;;;;;;;;;;18.10;49.60;;;;;;5052010;28;76154;-69
2021/04/15 11:05:37;;;;;;;;;;;18.20;49.10;;;;;;5051942;27;75218;-67
2021/04/15 11:08:08;;;;;;;;;;;18.30;49.10;;;;;;5049927;28;77420;-70
2021/04/15 11:10:35;;;;;;;;;;;18.60;49.00;;;;;;5052265;27;74857;-69
2021/04/15 11:13:07;;;;;;;;;;;18.70;48.80;;;;;;5050711;28;75262;-69
2021/04/15 11:15:38;;;;;;;;;;;19.00;48.40;;;;;;5049204;28;74881;-68
2021/04/15 11:18:08;;;;;;;;;;;19.20;47.80;;;;;;5050759;28;75334;-70
2021/04/15 11:20:35;;;;;;;;;;;19.30;47.60;;;;;;5050065;28;74604;-68
2021/04/15 11:23:07;;;;;;;;;;;19.50;47.20;;;;;;5050995;27;75360;-69
2021/04/15 11:25:35;;;;;;;;;;;19.60;47.30;;;;;;5050610;28;75249;-69
2021/04/15 11:28:07;;;;;;;;;;;19.80;47.00;;;;;;5049140;28;77673;-69
2021/04/15 11:30:35;;;;;;;;;;;20.00;46.60;;;;;;5052647;28;75458;-66
2021/04/15 11:33:01;;;;;;;;;;;20.30;46.10;;;;;;5064521;27;77768;-72
2021/04/15 11:35:27;;;;;;;;;;;20.60;45.50;;;;;;5031955;28;75482;-70
2021/04/15 11:38:29;;;;;;;;;;;20.80;45.30;;;;;;5071758;27;76166;-68
2021/04/15 11:40:54;;;;;;;;;;;20.90;44.80;;;;;;5016434;28;75886;-70
2021/04/15 11:43:23;;;;;;;;;;;21.20;44.40;;;;;;5039563;28;74632;-66
2021/04/15 11:45:49;;;;;;;;;;;21.20;43.90;;;;;;5048384;28;75578;-66
2021/04/15 11:48:23;;;;;;;;;;;21.30;43.80;;;;;;5048700;28;78292;-69
2021/04/15 11:50:50;;;;;;;;;;;21.20;44.10;;;;;;5047131;28;75351;-65
2021/04/15 11:53:42;;;;;;;;;;;21.30;44.20;;;;;;5050662;27;75186;-65
2021/04/15 11:56:34;;;;;;;;;;;21.40;43.90;;;;;;5048195;28;74536;-66
2021/04/15 11:59:17;;;;;;;;;;;22.50;42.80;;;;;;5050067;28;75918;-68
2021/04/15 12:01:43;;;;;;;;;;;24.10;40.40;;;;;;5051913;28;75286;-64
2021/04/15 12:04:13;;;;;;;;;;;24.50;38.90;;;;;;5049246;28;78300;-64
2021/04/15 12:06:40;;;;;;;;;;;25.00;38.10;;;;;;5051582;28;75775;-69
2021/04/15 12:09:07;;;;;;;;;;;25.30;36.80;;;;;;5051890;27;74714;-65
2021/04/15 12:11:51;;;;;;;;;;;25.90;37.30;;;;;;5052362;27;74518;-67
2021/04/15 12:14:17;;;;;;;;;;;27.90;34.40;;;;;;5051698;27;75252;-68
2021/04/15 12:17:00;;;;;;;;;;;28.20;33.10;;;;;;5051985;27;75185;-69
2021/04/15 12:19:44;;;;;;;;;;;27.50;33.50;;;;;;5046890;28;75260;-69
2021/04/15 12:22:40;;;;;;;;;;;26.70;34.80;;;;;;5050293;28;76331;-68
2021/04/15 12:25:12;;;;;;;;;;;26.20;34.80;;;;;;4996853;27;76654;-74
2021/04/15 12:27:38;;;;;;;;;;;25.90;35.70;;;;;;5051332;27;75398;-65
2021/04/15 12:30:03;;;;;;;;;;;25.70;35.60;;;;;;5051828;27;75176;-65
2021/04/15 12:32:58;;;;;;;;;;;25.30;36.10;;;;;;5052163;27;75231;-66
2021/04/15 12:35:26;;;;;;;;;;;25.10;36.10;;;;;;5042032;27;75189;-69
2021/04/15 12:38:11;;;;;;;;;;;25.40;36.60;;;;;;5051860;27;75143;-66
2021/04/15 12:40:38;;;;;;;;;;;26.90;34.40;;;;;;5050379;27;75762;-65
2021/04/15 12:43:10;;;;;;;;;;;27.00;32.80;;;;;;5045841;28;75390;-69
2021/04/15 12:45:53;;;;;;;;;;;26.80;32.60;;;;;;5031480;28;75389;-67
2021/04/15 12:48:41;;;;;;;;;;;26.60;33.80;;;;;;5033113;28;76501;-65
2021/04/15 12:51:09;;;;;;;;;;;27.00;33.70;;;;;;5013845;28;78340;-65
2021/04/15 12:53:36;;;;;;;;;;;27.20;33.00;;;;;;5034971;28;74404;-58
2021/04/15 12:56:02;;;;;;;;;;;27.00;34.10;;;;;;5034420;28;75771;-57
2021/04/15 12:58:28;;;;;;;;;;;27.90;33.90;;;;;;5034491;28;74987;-59
2021/04/15 13:00:55;;;;;;;;;;;28.80;31.50;;;;;;5033879;28;75259;-61
2021/04/15 13:03:23;;;;;;;;;;;29.60;31.50;;;;;;5033867;28;75784;-59
2021/04/15 13:05:49;;;;;;;;;;;29.60;30.60;;;;;;5033225;28;75418;-58
2021/04/15 13:08:21;;;;;;;;;;;28.90;30.60;;;;;;5033812;28;76887;-61
2021/04/15 13:10:48;;;;;;;;;;;28.70;31.50;;;;;;5032950;28;75740;-58
2021/04/15 13:13:19;;;;;;;;;;;28.50;31.50;;;;;;5034453;28;76293;-59
2021/04/15 13:15:44;;;;;;;;;;;28.00;32.00;;;;;;5066876;27;75588;-58
2021/04/15 13:18:30;;;;;;;;;;;27.70;32.30;;;;;;5034540;28;75243;-59
2021/04/15 13:21:13;;;;;;;;;;;27.40;32.10;;;;;;5033097;28;78054;-58
2021/04/15 13:23:40;;;;;;;;;;;27.00;32.60;;;;;;5034675;28;75101;-59
2021/04/15 13:26:06;;;;;;;;;;;26.60;32.40;;;;;;5032869;28;75415;-64
2021/04/15 13:28:41;;;;;;;;;;;26.30;33.10;;;;;;5034727;28;74458;-57
2021/04/15 13:31:07;;;;;;;;;;;26.30;33.00;;;;;;5034359;28;75053;-61
2021/04/15 13:33:34;;;;;;;;;;;26.30;33.10;;;;;;5032712;28;77193;-60
2021/04/15 13:36:03;;;;;;;;;;;26.20;32.60;;;;;;5034080;28;75761;-59
2021/04/15 13:38:34;;;;;;;;;;;25.70;32.80;;;;;;5034015;28;76740;-59
2021/04/15 13:41:09;;;;;;;;;;;25.40;34.10;;;;;;5033769;28;76871;-58
2021/04/15 13:43:36;;;;;;;;;;;25.10;33.70;;;;;;5034088;28;75773;-59
2021/04/15 13:46:20;;;;;;;;;;;24.70;34.10;;;;;;5034024;28;75189;-58
2021/04/15 13:48:46;;;;;;;;;;;24.10;34.70;;;;;;5032552;28;75487;-59
2021/04/15 13:51:20;;;;;;;;;;;23.70;36.10;;;;;;5034016;28;75098;-58
2021/04/15 13:53:50;;;;;;;;;;;23.50;36.80;;;;;;5033789;28;76478;-59
2021/04/15 13:56:34;;;;;;;;;;;23.30;36.70;;;;;;5034050;28;75241;-58
2021/04/15 13:59:00;;;;;;;;;;;22.80;36.70;;;;;;5033684;28;75154;-57
2021/04/15 14:01:31;;;;;;;;;;;22.30;38.20;;;;;;5033662;28;75109;-58
2021/04/15 14:03:57;;;;;;;;;;;22.00;38.30;;;;;;5034075;28;75560;-59
2021/04/15 14:06:26;;;;;;;;;;;21.90;38.60;;;;;;5033456;28;74981;-58
2021/04/15 14:09:16;;;;;;;;;;;21.80;38.90;;;;;;5033802;28;76588;-57
2021/04/15 14:11:44;;;;;;;;;;;21.70;38.70;;;;;;5032438;28;76767;-57
2021/04/15 14:14:29;;;;;;;;;;;21.70;39.50;;;;;;5032386;28;74737;-58
2021/04/15 14:16:56;;;;;;;;;;;21.60;39.30;;;;;;5033636;28;75472;-59
2021/04/15 14:19:30;;;;;;;;;;;21.40;39.40;;;;;;5033082;28;75402;-59
2021/04/15 14:21:57;;;;;;;;;;;21.30;39.90;;;;;;5033589;28;75474;-58
2021/04/15 14:24:25;;;;;;;;;;;21.10;40.10;;;;;;5033309;28;74706;-59
2021/04/15 14:26:52;;;;;;;;;;;21.00;39.60;;;;;;5033609;28;75380;-58
2021/04/15 14:29:23;;;;;;;;;;;20.80;40.40;;;;;;5032012;28;78119;-57
2021/04/15 14:31:52;;;;;;;;;;;20.70;40.90;;;;;;5032001;28;77545;-58
2021/04/15 14:34:20;;;;;;;;;;;20.80;40.90;;;;;;5032209;28;78543;-58
2021/04/15 14:36:50;;;;;;;;;;;20.80;41.10;;;;;;5033105;28;75098;-58
2021/04/15 14:39:18;;;;;;;;;;;20.90;40.70;;;;;;5033661;28;74565;-58
2021/04/15 14:41:50;;;;;;;;;;;20.80;40.90;;;;;;5032739;28;75195;-61
2021/04/15 14:44:18;;;;;;;;;;;20.80;41.20;;;;;;5032753;28;74766;-61
2021/04/15 14:46:44;;;;;;;;;;;20.80;40.90;;;;;;5033130;28;75112;-59